createdAt,value
2022-11-30T00:01:20.306Z,-3.68
2022-11-30T00:03:46.819Z,-3.74
2022-11-30T00:06:22.825Z,-3.77
2022-11-30T00:08:49.759Z,-3.79
2022-11-30T00:11:20.958Z,-3.72
2022-11-30T00:13:48.093Z,-3.71
2022-11-30T00:16:14.606Z,-3.74
2022-11-30T00:18:41.012Z,-3.76
2022-11-30T00:21:10.429Z,-3.77
2022-11-30T00:23:38.237Z,-3.81
2022-11-30T00:26:05.631Z,-3.81
2022-11-30T00:28:32.742Z,-3.77
2022-11-30T00:31:02.411Z,-3.82
2022-11-30T00:33:29.440Z,-3.86
2022-11-30T00:35:59.748Z,-3.79
2022-11-30T00:38:26.497Z,-3.80
2022-11-30T00:40:52.974Z,-3.83
2022-11-30T00:43:19.386Z,-3.89
2022-11-30T00:45:46.047Z,-3.90
2022-11-30T00:48:12.462Z,-3.92
2022-11-30T00:50:39.023Z,-3.95
2022-11-30T00:53:05.398Z,-3.95
2022-11-30T00:55:33.322Z,-3.96
2022-11-30T00:58:00.107Z,-4.00
2022-11-30T01:00:26.775Z,-4.02
2022-11-30T01:02:56.556Z,-4.04
2022-11-30T01:05:22.941Z,-4.05
2022-11-30T01:07:49.337Z,-4.05
2022-11-30T01:10:15.907Z,-4.11
2022-11-30T01:12:42.298Z,-4.12
2022-11-30T01:15:09.078Z,-4.14
2022-11-30T01:17:35.530Z,-4.16
2022-11-30T01:20:01.937Z,-4.15
2022-11-30T01:22:29.099Z,-4.15
2022-11-30T01:24:55.504Z,-4.15
2022-11-30T01:27:21.867Z,-4.16
2022-11-30T01:29:48.248Z,-4.19
2022-11-30T01:32:14.609Z,-4.13
2022-11-30T01:34:41.014Z,-4.06
2022-11-30T01:37:07.492Z,-4.08
2022-11-30T01:39:33.862Z,-4.13
2022-11-30T01:42:00.269Z,-4.14
2022-11-30T01:44:26.744Z,-4.14
2022-11-30T01:46:58.617Z,-4.10
2022-11-30T01:49:25.026Z,-4.13
2022-11-30T01:51:53.725Z,-4.20
2022-11-30T01:54:22.598Z,-4.22
2022-11-30T01:57:02.698Z,-4.24
2022-11-30T01:59:29.687Z,-4.29
2022-11-30T02:01:56.320Z,-4.31
2022-11-30T02:04:26.394Z,-4.34
2022-11-30T02:06:53.093Z,-4.38
2022-11-30T02:09:20.652Z,-4.41
2022-11-30T02:11:47.840Z,-4.39
2022-11-30T02:14:20.374Z,-4.37
2022-11-30T02:16:46.735Z,-4.35
2022-11-30T02:19:16.081Z,-4.36
2022-11-30T02:21:42.408Z,-4.35
2022-11-30T02:24:27.542Z,-4.39
2022-11-30T02:27:09.642Z,-4.43
2022-11-30T02:29:43.167Z,-4.46
2022-11-30T02:32:19.578Z,-4.52
2022-11-30T02:34:47.411Z,-4.52
2022-11-30T02:37:14.826Z,-4.48
2022-11-30T02:39:42.381Z,-4.45
2022-11-30T02:42:13.128Z,-4.49
2022-11-30T02:44:43.303Z,-4.52
2022-11-30T02:47:18.133Z,-4.51
2022-11-30T02:49:44.647Z,-4.48
2022-11-30T02:52:11.707Z,-4.48
2022-11-30T02:54:38.424Z,-4.49
2022-11-30T02:57:04.798Z,-4.50
2022-11-30T02:59:31.275Z,-4.47
2022-11-30T03:01:57.720Z,-4.46
2022-11-30T03:04:24.229Z,-4.51
2022-11-30T03:06:51.011Z,-4.58
2022-11-30T03:09:17.472Z,-4.62
2022-11-30T03:11:44.015Z,-4.61
2022-11-30T03:14:10.395Z,-4.66
2022-11-30T03:16:37.337Z,-4.69
2022-11-30T03:19:03.720Z,-4.67
2022-11-30T03:21:30.176Z,-4.69
2022-11-30T03:23:56.631Z,-4.72
2022-11-30T03:26:23.036Z,-4.73
2022-11-30T03:28:49.399Z,-4.75
2022-11-30T03:31:15.894Z,-4.75
2022-11-30T03:33:42.835Z,-4.74
2022-11-30T03:36:10.448Z,-4.67
2022-11-30T03:38:37.421Z,-4.55
2022-11-30T03:41:05.443Z,-4.47
2022-11-30T03:43:31.840Z,-4.39
2022-11-30T03:45:58.249Z,-4.30
2022-11-30T03:48:24.681Z,-4.23
2022-11-30T03:50:51.333Z,-4.28
2022-11-30T03:53:18.509Z,-4.30
2022-11-30T03:55:44.891Z,-4.29
2022-11-30T03:58:11.566Z,-4.29
2022-11-30T04:00:38.163Z,-4.27
2022-11-30T04:03:04.829Z,-4.18
2022-11-30T04:05:31.295Z,-4.08
2022-11-30T04:07:57.749Z,-4.00
2022-11-30T04:10:24.271Z,-3.93
2022-11-30T04:12:50.709Z,-3.87
2022-11-30T04:15:17.200Z,-3.85
2022-11-30T04:17:43.568Z,-3.89
2022-11-30T04:20:10.128Z,-3.85
2022-11-30T04:22:36.517Z,-3.82
2022-11-30T04:25:02.912Z,-3.77
2022-11-30T04:27:29.470Z,-3.76
2022-11-30T04:29:55.846Z,-3.78
2022-11-30T04:32:22.247Z,-3.72
2022-11-30T04:34:48.818Z,-3.73
2022-11-30T04:37:15.509Z,-3.68
2022-11-30T04:39:41.911Z,-3.72
2022-11-30T04:42:08.318Z,-3.69
2022-11-30T04:44:34.690Z,-3.61
2022-11-30T04:47:01.106Z,-3.57
2022-11-30T04:49:27.518Z,-3.55
2022-11-30T04:51:53.894Z,-3.59
2022-11-30T04:54:20.292Z,-3.66
2022-11-30T04:56:46.702Z,-3.66
2022-11-30T04:59:13.151Z,-3.64
2022-11-30T05:01:39.621Z,-3.66
2022-11-30T05:04:06.161Z,-3.64
2022-11-30T05:06:32.656Z,-3.58
2022-11-30T05:08:59.092Z,-3.57
2022-11-30T05:11:25.482Z,-3.57
2022-11-30T05:13:51.985Z,-3.57
2022-11-30T05:16:18.425Z,-3.58
2022-11-30T05:18:44.834Z,-3.61
2022-11-30T05:21:11.867Z,-3.59
2022-11-30T05:23:38.317Z,-3.59
2022-11-30T05:26:04.865Z,-3.63
2022-11-30T05:28:31.258Z,-3.62
2022-11-30T05:31:02.091Z,-3.60
2022-11-30T05:33:28.477Z,-3.60
2022-11-30T05:35:54.888Z,-3.59
2022-11-30T05:38:21.281Z,-3.53
2022-11-30T05:40:47.651Z,-3.44
2022-11-30T05:43:14.061Z,-3.51
2022-11-30T05:45:40.454Z,-3.54
2022-11-30T05:48:07.085Z,-3.54
2022-11-30T05:50:33.574Z,-3.47
2022-11-30T05:53:01.026Z,-3.43
2022-11-30T05:55:28.479Z,-3.35
2022-11-30T05:57:55.011Z,-3.25
2022-11-30T06:00:21.860Z,-3.18
2022-11-30T06:02:48.489Z,-3.17
2022-11-30T06:05:15.079Z,-3.17
2022-11-30T06:07:41.562Z,-3.15
2022-11-30T06:10:08.316Z,-3.10
2022-11-30T06:12:34.914Z,-3.10
2022-11-30T06:15:01.389Z,-3.10
2022-11-30T06:17:27.811Z,-3.13
2022-11-30T06:19:54.246Z,-3.11
2022-11-30T06:22:20.654Z,-3.10
2022-11-30T06:24:47.447Z,-3.09
2022-11-30T06:27:14.232Z,-3.09
2022-11-30T06:29:40.603Z,-3.01
2022-11-30T06:32:07.407Z,-3.02
2022-11-30T06:34:33.803Z,-3.06
2022-11-30T06:37:00.182Z,-3.05
2022-11-30T06:39:49.980Z,-3.06
2022-11-30T06:42:12.993Z,-3.07
2022-11-30T06:44:39.371Z,-3.09
2022-11-30T06:47:05.743Z,-3.10
2022-11-30T06:49:32.165Z,-3.10
2022-11-30T06:51:58.601Z,-3.05
2022-11-30T06:54:25.062Z,-3.09
2022-11-30T06:56:51.426Z,-3.14
2022-11-30T06:59:17.878Z,-3.21
2022-11-30T07:01:44.357Z,-3.22
2022-11-30T07:04:10.777Z,-3.17
2022-11-30T07:06:37.199Z,-3.14
2022-11-30T07:09:03.798Z,-3.10
2022-11-30T07:11:30.311Z,-3.03
2022-11-30T07:13:56.710Z,-2.94
2022-11-30T07:16:23.225Z,-2.93
2022-11-30T07:18:49.695Z,-2.86
2022-11-30T07:21:16.096Z,-2.93
2022-11-30T07:24:01.017Z,-2.91
2022-11-30T07:26:27.574Z,-2.94
2022-11-30T07:28:55.555Z,-2.95
2022-11-30T07:31:26.415Z,-2.92
2022-11-30T07:33:52.849Z,-2.88
2022-11-30T07:36:20.157Z,-2.85
2022-11-30T07:38:46.557Z,-2.89
2022-11-30T07:41:13.374Z,-2.95
2022-11-30T07:43:39.779Z,-2.98
2022-11-30T07:46:06.513Z,-2.92
2022-11-30T07:48:34.019Z,-2.83
2022-11-30T07:51:07.696Z,-2.75
2022-11-30T07:53:34.143Z,-2.66
2022-11-30T07:56:04.985Z,-2.59
2022-11-30T07:58:31.883Z,-2.57
2022-11-30T08:01:02.546Z,-2.54
2022-11-30T08:03:32.396Z,-2.53
2022-11-30T08:06:11.589Z,-2.51
2022-11-30T08:08:39.454Z,-2.55
2022-11-30T08:11:06.960Z,-2.57
2022-11-30T08:13:33.405Z,-2.59
2022-11-30T08:16:03.468Z,-2.59
2022-11-30T08:18:29.931Z,-2.60
2022-11-30T08:21:00.074Z,-2.54
2022-11-30T08:23:30.393Z,-2.52
2022-11-30T08:25:56.952Z,-2.44
2022-11-30T08:28:23.353Z,-2.42
2022-11-30T08:30:49.820Z,-2.42
2022-11-30T08:33:16.280Z,-2.43
2022-11-30T08:35:43.083Z,-2.41
2022-11-30T08:38:09.530Z,-2.38
2022-11-30T08:40:36.302Z,-2.39
2022-11-30T08:43:02.690Z,-2.37
2022-11-30T08:45:29.057Z,-2.36
2022-11-30T08:47:55.577Z,-2.35
2022-11-30T08:50:21.934Z,-2.33
2022-11-30T08:52:48.322Z,-2.32
2022-11-30T08:55:14.767Z,-2.28
2022-11-30T08:57:41.134Z,-2.25
2022-11-30T09:00:07.852Z,-2.25
2022-11-30T09:02:34.312Z,-2.24
2022-11-30T09:05:00.779Z,-2.23
2022-11-30T09:07:27.276Z,-2.18
2022-11-30T09:09:53.824Z,-2.14
2022-11-30T09:12:20.197Z,-2.12
2022-11-30T09:14:52.211Z,-2.12
2022-11-30T09:17:22.502Z,-2.14
2022-11-30T09:19:48.980Z,-2.10
2022-11-30T09:22:15.357Z,-2.05
2022-11-30T09:24:41.769Z,-2.03
2022-11-30T09:27:08.171Z,-1.98
2022-11-30T09:29:35.707Z,-1.89
2022-11-30T09:32:02.090Z,-1.82
2022-11-30T09:34:28.528Z,-1.77
2022-11-30T09:36:54.901Z,-1.72
2022-11-30T09:39:21.351Z,-1.70
2022-11-30T09:42:04.397Z,-1.64
2022-11-30T09:44:43.328Z,-1.59
2022-11-30T09:47:09.719Z,-1.57
2022-11-30T09:49:37.947Z,-1.52
2022-11-30T09:52:05.826Z,-1.49
2022-11-30T09:54:36.788Z,-1.46
2022-11-30T09:57:25.837Z,-1.40
2022-11-30T09:59:54.904Z,-1.32
2022-11-30T10:02:25.316Z,-1.29
2022-11-30T10:04:51.858Z,-1.27
2022-11-30T10:07:37.083Z,-1.23
2022-11-30T10:10:32.295Z,-1.17
2022-11-30T10:12:59.592Z,-1.10
2022-11-30T10:15:28.953Z,-1.10
2022-11-30T10:18:07.568Z,-1.10
2022-11-30T10:20:33.936Z,-1.08
2022-11-30T10:23:03.353Z,-1.01
2022-11-30T10:25:50.632Z,-0.96
2022-11-30T10:28:45.400Z,-0.90
2022-11-30T10:31:09.007Z,-0.83
2022-11-30T10:33:40.696Z,-0.78
2022-11-30T10:36:12.347Z,-0.75
2022-11-30T10:38:46.790Z,-0.70
2022-11-30T10:41:16.144Z,-0.68
2022-11-30T10:43:44.896Z,-0.60
2022-11-30T10:46:18.559Z,-0.55
2022-11-30T10:48:49.159Z,-0.49
2022-11-30T10:51:16.771Z,-0.43
2022-11-30T10:53:43.146Z,-0.39
2022-11-30T10:56:11.262Z,-0.37
2022-11-30T10:58:53.247Z,-0.30
2022-11-30T11:01:36.186Z,-0.25
2022-11-30T11:04:14.091Z,-0.18
2022-11-30T11:06:48.957Z,-0.13
2022-11-30T11:09:31.453Z,-0.07
2022-11-30T11:11:58.713Z,0.00
2022-11-30T11:14:26.302Z,0.06
2022-11-30T11:16:52.678Z,0.06
2022-11-30T11:19:23.649Z,0.07
2022-11-30T11:21:50.702Z,0.08
2022-11-30T11:24:20.035Z,0.10
2022-11-30T11:26:50.824Z,0.14
2022-11-30T11:29:31.330Z,0.17
2022-11-30T11:32:16.407Z,0.20
2022-11-30T11:34:49.419Z,0.27
2022-11-30T11:37:22.326Z,0.32
2022-11-30T11:39:59.756Z,0.33
2022-11-30T11:42:27.691Z,0.36
2022-11-30T11:44:55.952Z,0.38
2022-11-30T11:47:41.093Z,0.38
2022-11-30T11:50:13.326Z,0.36
2022-11-30T11:52:39.842Z,0.39
2022-11-30T11:55:09.828Z,0.37
2022-11-30T11:57:41.126Z,0.31
2022-11-30T12:00:16.307Z,0.34
2022-11-30T12:02:52.376Z,0.31
2022-11-30T12:05:24.674Z,0.30
2022-11-30T12:08:11.581Z,0.31
2022-11-30T12:10:54.389Z,0.35
2022-11-30T12:13:22.698Z,0.35
2022-11-30T12:16:07.701Z,0.34
2022-11-30T12:18:39.744Z,0.31
2022-11-30T12:21:12.922Z,0.36
2022-11-30T12:24:09.154Z,0.40
2022-11-30T12:26:43.069Z,0.40
2022-11-30T12:29:18.781Z,0.43
2022-11-30T12:31:48.274Z,0.48
2022-11-30T12:34:19.602Z,0.47
2022-11-30T12:36:46.002Z,0.48
2022-11-30T12:39:24.580Z,0.46
2022-11-30T12:41:52.895Z,0.43
2022-11-30T12:44:19.282Z,0.42
2022-11-30T12:46:45.818Z,0.41
2022-11-30T12:49:19.472Z,0.44
2022-11-30T12:51:51.767Z,0.44
2022-11-30T12:54:26.583Z,0.42
2022-11-30T12:57:31.528Z,0.44
2022-11-30T13:00:13.187Z,0.51
2022-11-30T13:02:42.231Z,0.56
2022-11-30T13:05:13.024Z,0.60
2022-11-30T13:07:48.370Z,0.57
2022-11-30T13:10:34.674Z,0.55
2022-11-30T13:13:01.959Z,0.56
2022-11-30T13:15:31.171Z,0.51
2022-11-30T13:17:57.774Z,0.51
2022-11-30T13:20:42.548Z,0.52
2022-11-30T13:23:19.812Z,0.54
2022-11-30T13:26:11.719Z,0.54
2022-11-30T13:28:41.077Z,0.50
2022-11-30T13:31:10.720Z,0.47
2022-11-30T13:33:37.958Z,0.49
2022-11-30T13:36:27.878Z,0.51
2022-11-30T13:39:13.085Z,0.51
2022-11-30T13:41:40.468Z,0.45
2022-11-30T13:44:22.491Z,0.43
2022-11-30T13:46:50.484Z,0.42
2022-11-30T13:49:25.879Z,0.42
2022-11-30T13:52:13.586Z,0.41
2022-11-30T13:54:46.810Z,0.46
2022-11-30T13:57:16.384Z,0.47
2022-11-30T13:59:47.424Z,0.43
2022-11-30T14:02:44.554Z,0.41
2022-11-30T14:05:17.410Z,0.41
2022-11-30T14:07:44.908Z,0.33
2022-11-30T14:10:43.776Z,0.36
2022-11-30T14:13:10.540Z,0.37
2022-11-30T14:15:40.749Z,0.37
2022-11-30T14:18:09.891Z,0.40
2022-11-30T14:20:43.931Z,0.39
2022-11-30T14:23:15.312Z,0.36
2022-11-30T14:25:46.823Z,0.35
2022-11-30T14:28:16.294Z,0.35
2022-11-30T14:30:43.578Z,0.38
2022-11-30T14:33:19.542Z,0.38
2022-11-30T14:35:49.210Z,0.36
2022-11-30T14:38:27.003Z,0.33
2022-11-30T14:40:53.978Z,0.29
2022-11-30T14:43:20.375Z,0.25
2022-11-30T14:46:04.604Z,0.25
2022-11-30T14:48:32.075Z,0.22
2022-11-30T14:51:00.066Z,0.20
2022-11-30T14:53:47.174Z,0.16
2022-11-30T14:56:22.596Z,0.14
2022-11-30T14:59:06.385Z,0.13
2022-11-30T15:01:33.436Z,0.10
2022-11-30T15:04:10.229Z,0.05
2022-11-30T15:06:38.301Z,0.03
2022-11-30T15:09:05.113Z,0.05
2022-11-30T15:11:31.628Z,0.06
2022-11-30T15:14:07.266Z,0.02
2022-11-30T15:16:33.718Z,0.02
2022-11-30T15:19:15.691Z,0.00
2022-11-30T15:21:45.197Z,-0.03
2022-11-30T15:24:11.705Z,-0.05
2022-11-30T15:26:43.927Z,-0.10
2022-11-30T15:29:16.875Z,-0.21
2022-11-30T15:31:44.714Z,-0.26
2022-11-30T15:34:21.890Z,-0.27
2022-11-30T15:36:48.397Z,-0.26
2022-11-30T15:39:25.516Z,-0.23
2022-11-30T15:41:55.750Z,-0.32
2022-11-30T15:44:44.141Z,-0.46
2022-11-30T15:47:24.250Z,-0.67
2022-11-30T15:49:51.645Z,-0.70
2022-11-30T15:52:18.127Z,-0.77
2022-11-30T15:54:45.805Z,-0.85
2022-11-30T15:57:12.688Z,-0.78
2022-11-30T15:59:39.084Z,-0.81
2022-11-30T16:02:08.708Z,-0.83
2022-11-30T16:04:54.021Z,-0.89
2022-11-30T16:07:20.513Z,-0.91
2022-11-30T16:09:47.100Z,-0.96
2022-11-30T16:12:26.030Z,-0.99
2022-11-30T16:14:52.387Z,-1.07
2022-11-30T16:17:19.128Z,-1.04
2022-11-30T16:19:45.751Z,-1.02
2022-11-30T16:22:13.213Z,-0.95
2022-11-30T16:24:39.718Z,-0.87
2022-11-30T16:27:17.409Z,-0.93
2022-11-30T16:29:47.849Z,-0.93
2022-11-30T16:32:17.916Z,-1.02
2022-11-30T16:34:44.450Z,-1.02
2022-11-30T16:37:11.254Z,-1.06
2022-11-30T16:39:37.622Z,-1.05
2022-11-30T16:42:04.124Z,-1.08
2022-11-30T16:44:30.522Z,-1.15
2022-11-30T16:46:57.115Z,-1.17
2022-11-30T16:49:23.480Z,-1.15
2022-11-30T16:51:49.856Z,-1.17
2022-11-30T16:54:16.269Z,-1.27
2022-11-30T16:56:43.287Z,-1.20
2022-11-30T16:59:15.119Z,-1.31
2022-11-30T17:01:44.849Z,-1.29
2022-11-30T17:04:19.227Z,-1.35
2022-11-30T17:06:49.794Z,-1.30
2022-11-30T17:09:17.167Z,-1.27
2022-11-30T17:11:45.489Z,-1.35
2022-11-30T17:14:13.039Z,-1.27
2022-11-30T17:16:39.579Z,-1.23
2022-11-30T17:19:07.592Z,-1.15
2022-11-30T17:21:35.435Z,-1.07
2022-11-30T17:24:02.310Z,-1.06
2022-11-30T17:26:28.787Z,-1.01
2022-11-30T17:28:55.221Z,-0.94
2022-11-30T17:31:21.857Z,-0.98
2022-11-30T17:33:48.715Z,-0.98
2022-11-30T17:36:15.887Z,-0.96
2022-11-30T17:38:45.344Z,-1.02
2022-11-30T17:41:18.578Z,-0.95
2022-11-30T17:43:45.807Z,-1.15
2022-11-30T17:46:14.128Z,-1.20
2022-11-30T17:48:40.570Z,-1.21
2022-11-30T17:51:07.453Z,-1.19
2022-11-30T17:53:33.928Z,-1.18
2022-11-30T17:56:10.953Z,-1.19
2022-11-30T17:58:43.928Z,-1.17
2022-11-30T18:01:31.055Z,-1.15
2022-11-30T18:03:58.158Z,-1.09
2022-11-30T18:06:24.629Z,-1.07
2022-11-30T18:08:51.069Z,-1.11
2022-11-30T18:11:20.276Z,-1.10
2022-11-30T18:13:47.443Z,-1.17
2022-11-30T18:16:14.984Z,-1.10
2022-11-30T18:18:47.075Z,-1.14
2022-11-30T18:21:15.225Z,-1.15
2022-11-30T18:23:41.637Z,-1.08
2022-11-30T18:26:10.535Z,-1.16
2022-11-30T18:28:37.202Z,-1.14
2022-11-30T18:31:05.685Z,-1.06
2022-11-30T18:33:32.702Z,-1.03
2022-11-30T18:35:59.641Z,-0.96
2022-11-30T18:38:26.458Z,-0.88
2022-11-30T18:40:53.293Z,-0.84
2022-11-30T18:43:19.874Z,-1.01
2022-11-30T18:45:46.343Z,-1.08
2022-11-30T18:48:12.868Z,-1.00
2022-11-30T18:50:39.317Z,-0.94
2022-11-30T18:53:05.778Z,-0.85
2022-11-30T18:55:32.295Z,-0.78
2022-11-30T18:57:58.657Z,-0.73
2022-11-30T19:00:27.659Z,-0.66
2022-11-30T19:02:54.147Z,-0.61
2022-11-30T19:05:32.594Z,-0.60
2022-11-30T19:07:59.725Z,-0.59
2022-11-30T19:10:26.195Z,-0.56
2022-11-30T19:12:52.588Z,-0.55
2022-11-30T19:15:19.138Z,-0.50
2022-11-30T19:17:45.569Z,-0.46
2022-11-30T19:20:12.224Z,-0.43
2022-11-30T19:22:38.661Z,-0.49
2022-11-30T19:25:05.329Z,-0.48
2022-11-30T19:27:31.700Z,-0.47
2022-11-30T19:29:58.088Z,-0.42
2022-11-30T19:32:24.500Z,-0.37
2022-11-30T19:34:50.892Z,-0.35
2022-11-30T19:37:17.315Z,-0.32
2022-11-30T19:39:43.733Z,-0.34
2022-11-30T19:42:11.249Z,-0.39
2022-11-30T19:44:37.719Z,-0.37
2022-11-30T19:47:04.270Z,-0.29
2022-11-30T19:49:30.633Z,-0.25
2022-11-30T19:51:56.999Z,-0.26
2022-11-30T19:54:23.444Z,-0.22
2022-11-30T19:56:49.860Z,-0.18
2022-11-30T19:59:16.252Z,-0.15
2022-11-30T20:01:42.770Z,-0.13
2022-11-30T20:04:09.185Z,-0.11
2022-11-30T20:06:36.885Z,-0.14
2022-11-30T20:09:04.410Z,-0.08
2022-11-30T20:11:31.070Z,-0.07
2022-11-30T20:13:58.441Z,-0.07
2022-11-30T20:16:25.041Z,-0.05
2022-11-30T20:18:56.271Z,-0.07
2022-11-30T20:21:23.988Z,-0.05
2022-11-30T20:23:50.879Z,-0.03
2022-11-30T20:26:17.348Z,-0.06
2022-11-30T20:28:44.961Z,-0.04
2022-11-30T20:31:12.167Z,-0.01
2022-11-30T20:33:38.992Z,0.02
2022-11-30T20:36:06.272Z,0.02
2022-11-30T20:38:32.922Z,0.05
2022-11-30T20:40:59.350Z,0.07
2022-11-30T20:43:25.861Z,0.08
2022-11-30T20:45:52.627Z,0.11
2022-11-30T20:48:19.344Z,0.12
2022-11-30T20:50:55.979Z,0.15
2022-11-30T20:53:32.680Z,0.17
2022-11-30T20:56:00.496Z,0.17
2022-11-30T20:58:27.325Z,0.18
2022-11-30T21:00:53.736Z,0.21
2022-11-30T21:03:20.167Z,0.23
2022-11-30T21:05:46.547Z,0.23
2022-11-30T21:08:12.970Z,0.23
2022-11-30T21:10:39.718Z,0.24
2022-11-30T21:13:06.211Z,0.26
2022-11-30T21:15:32.713Z,0.27
2022-11-30T21:17:59.200Z,0.28
2022-11-30T21:20:25.576Z,0.30
2022-11-30T21:22:52.025Z,0.31
2022-11-30T21:25:18.500Z,0.35
2022-11-30T21:27:50.260Z,0.37
2022-11-30T21:30:16.693Z,0.40
2022-11-30T21:32:43.092Z,0.41
2022-11-30T21:35:09.576Z,0.41
2022-11-30T21:37:36.021Z,0.41
2022-11-30T21:40:02.408Z,0.42
2022-11-30T21:42:28.798Z,0.42
2022-11-30T21:44:55.180Z,0.44
2022-11-30T21:47:21.572Z,0.46
2022-11-30T21:49:48.001Z,0.44
2022-11-30T21:52:14.438Z,0.45
2022-11-30T21:54:40.874Z,0.45
2022-11-30T21:57:07.310Z,0.48
2022-11-30T21:59:33.831Z,0.51
2022-11-30T22:02:00.425Z,0.51
2022-11-30T22:04:27.076Z,0.55
2022-11-30T22:06:53.502Z,0.58
2022-11-30T22:09:19.988Z,0.60
2022-11-30T22:11:46.656Z,0.59
2022-11-30T22:14:15.573Z,0.61
2022-11-30T22:16:42.181Z,0.62
2022-11-30T22:19:08.735Z,0.63
2022-11-30T22:21:35.557Z,0.65
2022-11-30T22:24:03.532Z,0.67
2022-11-30T22:26:29.904Z,0.55
2022-11-30T22:28:57.804Z,0.53
2022-11-30T22:31:26.018Z,0.58
2022-11-30T22:33:52.904Z,0.64
2022-11-30T22:36:20.504Z,0.66
2022-11-30T22:38:47.448Z,0.66
2022-11-30T22:41:15.307Z,0.70
2022-11-30T22:43:42.354Z,0.71
2022-11-30T22:46:19.625Z,0.75
2022-11-30T22:48:46.626Z,0.77
2022-11-30T22:51:17.074Z,0.82
2022-11-30T22:53:43.832Z,0.74
2022-11-30T22:56:12.248Z,0.65
2022-11-30T22:58:39.112Z,0.62
2022-11-30T23:01:10.521Z,0.68
2022-11-30T23:03:37.170Z,0.60
2022-11-30T23:06:03.734Z,0.61
2022-11-30T23:08:30.438Z,0.66
2022-11-30T23:10:57.626Z,0.71
2022-11-30T23:13:24.532Z,0.68
2022-11-30T23:15:51.085Z,0.73
2022-11-30T23:18:17.855Z,0.73
2022-11-30T23:20:44.222Z,0.69
2022-11-30T23:23:10.594Z,0.71
2022-11-30T23:25:36.981Z,0.73
2022-11-30T23:28:03.345Z,0.78
2022-11-30T23:30:29.718Z,0.83
2022-11-30T23:32:56.446Z,0.81
2022-11-30T23:35:24.019Z,0.84
2022-11-30T23:37:51.547Z,0.85
2022-11-30T23:40:18.378Z,0.84
2022-11-30T23:42:44.798Z,0.84
2022-11-30T23:45:11.724Z,0.87
2022-11-30T23:47:38.391Z,0.88
2022-11-30T23:50:05.541Z,0.93
2022-11-30T23:52:31.979Z,0.94
2022-11-30T23:54:58.400Z,0.96
2022-11-30T23:57:24.782Z,0.98
2022-11-30T23:59:51.187Z,0.94
